sensor_id;sensor_type;location;lat;lon;timestamp;temperature;humidity
51765;DHT22;37835;53.256;6.456;2022-10-16T00:00:37;12.30;99.90
51765;DHT22;37835;53.256;6.456;2022-10-16T00:03:04;12.30;99.90
51765;DHT22;37835;53.256;6.456;2022-10-16T00:05:29;12.30;99.90
51765;DHT22;37835;53.256;6.456;2022-10-16T00:07:55;12.30;99.90
51765;DHT22;37835;53.256;6.456;2022-10-16T00:10:21;12.30;99.90
51765;DHT22;37835;53.256;6.456;2022-10-16T00:12:46;12.30;99.90
51765;DHT22;37835;53.256;6.456;2022-10-16T00:15:12;12.30;99.90
51765;DHT22;37835;53.256;6.456;2022-10-16T00:17:38;12.30;99.90
51765;DHT22;37835;53.256;6.456;2022-10-16T00:20:04;12.30;99.90
51765;DHT22;37835;53.256;6.456;2022-10-16T00:22:30;12.20;99.90
51765;DHT22;37835;53.256;6.456;2022-10-16T00:24:55;12.20;99.90
51765;DHT22;37835;53.256;6.456;2022-10-16T00:27:21;12.20;99.90
51765;DHT22;37835;53.256;6.456;2022-10-16T00:29:50;12.30;99.90
51765;DHT22;37835;53.256;6.456;2022-10-16T00:32:17;12.20;99.90
51765;DHT22;37835;53.256;6.456;2022-10-16T00:34:43;12.20;99.90
51765;DHT22;37835;53.256;6.456;2022-10-16T00:37:08;12.20;99.90
51765;DHT22;37835;53.256;6.456;2022-10-16T00:39:34;12.20;99.90
51765;DHT22;37835;53.256;6.456;2022-10-16T00:41:59;12.20;99.90
51765;DHT22;37835;53.256;6.456;2022-10-16T00:44:53;12.20;99.90
51765;DHT22;37835;53.256;6.456;2022-10-16T00:47:37;12.30;99.90
51765;DHT22;37835;53.256;6.456;2022-10-16T00:50:10;12.20;99.90
51765;DHT22;37835;53.256;6.456;2022-10-16T00:52:37;12.20;99.90
51765;DHT22;37835;53.256;6.456;2022-10-16T00:55:06;12.30;99.90
51765;DHT22;37835;53.256;6.456;2022-10-16T00:57:32;12.20;99.90
51765;DHT22;37835;53.256;6.456;2022-10-16T00:59:57;12.20;99.90
51765;DHT22;37835;53.256;6.456;2022-10-16T01:02:24;12.20;99.90
51765;DHT22;37835;53.256;6.456;2022-10-16T01:04:51;12.30;99.90
51765;DHT22;37835;53.256;6.456;2022-10-16T01:07:38;12.20;99.90
51765;DHT22;37835;53.256;6.456;2022-10-16T01:10:19;12.30;99.90
51765;DHT22;37835;53.256;6.456;2022-10-16T01:12:59;12.30;99.90
51765;DHT22;37835;53.256;6.456;2022-10-16T01:15:49;12.30;99.90
51765;DHT22;37835;53.256;6.456;2022-10-16T01:18:26;12.30;99.90
51765;DHT22;37835;53.256;6.456;2022-10-16T01:21:31;12.30;99.90
51765;DHT22;37835;53.256;6.456;2022-10-16T01:31:44;12.40;99.90
51765;DHT22;37835;53.256;6.456;2022-10-16T01:34:20;12.40;99.90
51765;DHT22;37835;53.256;6.456;2022-10-16T01:36:54;12.40;99.90
51765;DHT22;37835;53.256;6.456;2022-10-16T01:39:24;12.40;99.90
51765;DHT22;37835;53.256;6.456;2022-10-16T01:42:16;12.40;99.90
51765;DHT22;37835;53.256;6.456;2022-10-16T01:44:45;12.40;99.90
51765;DHT22;37835;53.256;6.456;2022-10-16T01:47:13;12.40;99.90
51765;DHT22;37835;53.256;6.456;2022-10-16T01:49:41;12.50;99.90
51765;DHT22;37835;53.256;6.456;2022-10-16T01:52:12;12.40;99.90
51765;DHT22;37835;53.256;6.456;2022-10-16T01:54:41;12.50;99.90
51765;DHT22;37835;53.256;6.456;2022-10-16T01:57:07;12.50;99.90
51765;DHT22;37835;53.256;6.456;2022-10-16T01:59:37;12.50;99.90
51765;DHT22;37835;53.256;6.456;2022-10-16T02:02:07;12.50;99.90
51765;DHT22;37835;53.256;6.456;2022-10-16T02:07:20;12.60;99.90
51765;DHT22;37835;53.256;6.456;2022-10-16T02:09:46;12.80;99.90
51765;DHT22;37835;53.256;6.456;2022-10-16T02:12:30;12.60;99.90
51765;DHT22;37835;53.256;6.456;2022-10-16T02:14:56;12.60;99.90
51765;DHT22;37835;53.256;6.456;2022-10-16T02:17:23;12.60;99.90
51765;DHT22;37835;53.256;6.456;2022-10-16T02:19:51;12.60;99.90
51765;DHT22;37835;53.256;6.456;2022-10-16T02:22:40;12.60;99.90
51765;DHT22;37835;53.256;6.456;2022-10-16T02:25:22;12.60;99.90
51765;DHT22;37835;53.256;6.456;2022-10-16T02:28:00;12.60;99.90
51765;DHT22;37835;53.256;6.456;2022-10-16T02:30:41;12.60;99.90
51765;DHT22;37835;53.256;6.456;2022-10-16T02:33:10;12.60;99.90
51765;DHT22;37835;53.256;6.456;2022-10-16T02:35:37;12.70;99.90
51765;DHT22;37835;53.256;6.456;2022-10-16T02:38:03;12.70;99.90
51765;DHT22;37835;53.256;6.456;2022-10-16T02:40:29;12.60;99.90
51765;DHT22;37835;53.256;6.456;2022-10-16T02:42:55;12.70;99.90
51765;DHT22;37835;53.256;6.456;2022-10-16T02:45:22;12.60;99.90
51765;DHT22;37835;53.256;6.456;2022-10-16T02:47:48;12.70;99.90
51765;DHT22;37835;53.256;6.456;2022-10-16T02:50:14;12.70;99.90
51765;DHT22;37835;53.256;6.456;2022-10-16T02:52:40;12.60;99.90
51765;DHT22;37835;53.256;6.456;2022-10-16T02:55:06;12.70;99.90
51765;DHT22;37835;53.256;6.456;2022-10-16T02:57:32;12.70;99.90
51765;DHT22;37835;53.256;6.456;2022-10-16T02:59:58;12.70;99.90
51765;DHT22;37835;53.256;6.456;2022-10-16T03:02:23;12.60;99.90
51765;DHT22;37835;53.256;6.456;2022-10-16T03:04:49;12.60;99.90
51765;DHT22;37835;53.256;6.456;2022-10-16T03:07:14;12.60;99.90
51765;DHT22;37835;53.256;6.456;2022-10-16T03:09:40;12.60;99.90
51765;DHT22;37835;53.256;6.456;2022-10-16T03:12:06;12.60;99.90
51765;DHT22;37835;53.256;6.456;2022-10-16T03:14:32;12.60;99.90
51765;DHT22;37835;53.256;6.456;2022-10-16T03:16:57;12.50;99.90
51765;DHT22;37835;53.256;6.456;2022-10-16T03:19:23;12.50;99.90
51765;DHT22;37835;53.256;6.456;2022-10-16T03:21:48;12.50;99.90
51765;DHT22;37835;53.256;6.456;2022-10-16T03:24:14;12.50;99.90
51765;DHT22;37835;53.256;6.456;2022-10-16T03:26:40;12.50;99.90
51765;DHT22;37835;53.256;6.456;2022-10-16T03:29:05;12.40;99.90
51765;DHT22;37835;53.256;6.456;2022-10-16T03:31:31;12.40;99.90
51765;DHT22;37835;53.256;6.456;2022-10-16T03:33:57;12.40;99.90
51765;DHT22;37835;53.256;6.456;2022-10-16T03:36:22;12.40;99.90
51765;DHT22;37835;53.256;6.456;2022-10-16T03:38:48;12.40;99.90
51765;DHT22;37835;53.256;6.456;2022-10-16T03:41:14;12.40;99.90
51765;DHT22;37835;53.256;6.456;2022-10-16T03:43:40;12.40;99.90
51765;DHT22;37835;53.256;6.456;2022-10-16T03:46:05;12.40;99.90
51765;DHT22;37835;53.256;6.456;2022-10-16T03:48:31;12.40;99.90
51765;DHT22;37835;53.256;6.456;2022-10-16T03:50:57;12.40;99.90
51765;DHT22;37835;53.256;6.456;2022-10-16T03:53:23;12.40;99.90
51765;DHT22;37835;53.256;6.456;2022-10-16T03:55:49;12.40;99.90
51765;DHT22;37835;53.256;6.456;2022-10-16T03:58:15;12.40;99.90
51765;DHT22;37835;53.256;6.456;2022-10-16T04:00:41;12.40;99.90
51765;DHT22;37835;53.256;6.456;2022-10-16T04:03:07;12.40;99.90
51765;DHT22;37835;53.256;6.456;2022-10-16T04:05:34;12.40;99.90
51765;DHT22;37835;53.256;6.456;2022-10-16T04:07:59;12.40;99.90
51765;DHT22;37835;53.256;6.456;2022-10-16T04:10:25;12.40;99.90
51765;DHT22;37835;53.256;6.456;2022-10-16T04:12:50;12.30;99.90
51765;DHT22;37835;53.256;6.456;2022-10-16T04:15:16;12.40;99.90
51765;DHT22;37835;53.256;6.456;2022-10-16T04:17:41;12.40;99.90
51765;DHT22;37835;53.256;6.456;2022-10-16T04:20:07;12.30;99.90
51765;DHT22;37835;53.256;6.456;2022-10-16T04:22:33;12.30;99.90
51765;DHT22;37835;53.256;6.456;2022-10-16T04:24:59;12.30;99.90
51765;DHT22;37835;53.256;6.456;2022-10-16T04:27:24;12.30;99.90
51765;DHT22;37835;53.256;6.456;2022-10-16T04:29:50;12.30;99.90
51765;DHT22;37835;53.256;6.456;2022-10-16T04:32:16;12.30;99.90
51765;DHT22;37835;53.256;6.456;2022-10-16T04:34:41;12.30;99.90
51765;DHT22;37835;53.256;6.456;2022-10-16T04:37:07;12.30;99.90
51765;DHT22;37835;53.256;6.456;2022-10-16T04:39:32;12.30;99.90
51765;DHT22;37835;53.256;6.456;2022-10-16T04:41:58;12.30;99.90
51765;DHT22;37835;53.256;6.456;2022-10-16T04:44:24;12.30;99.90
51765;DHT22;37835;53.256;6.456;2022-10-16T04:46:52;12.30;99.90
51765;DHT22;37835;53.256;6.456;2022-10-16T04:49:18;12.30;99.90
51765;DHT22;37835;53.256;6.456;2022-10-16T04:51:43;12.30;99.90
51765;DHT22;37835;53.256;6.456;2022-10-16T04:54:09;12.30;99.90
51765;DHT22;37835;53.256;6.456;2022-10-16T04:56:35;12.30;99.90
51765;DHT22;37835;53.256;6.456;2022-10-16T04:59:08;12.30;99.90
51765;DHT22;37835;53.256;6.456;2022-10-16T05:01:34;12.30;99.90
51765;DHT22;37835;53.256;6.456;2022-10-16T05:03:59;12.30;99.90
51765;DHT22;37835;53.256;6.456;2022-10-16T05:06:25;12.40;99.90
51765;DHT22;37835;53.256;6.456;2022-10-16T05:08:51;12.40;99.90
51765;DHT22;37835;53.256;6.456;2022-10-16T05:11:16;12.40;99.90
51765;DHT22;37835;53.256;6.456;2022-10-16T05:13:42;12.40;99.90
51765;DHT22;37835;53.256;6.456;2022-10-16T05:16:07;12.40;99.90
51765;DHT22;37835;53.256;6.456;2022-10-16T05:18:33;12.50;99.90
51765;DHT22;37835;53.256;6.456;2022-10-16T05:20:58;12.40;99.90
51765;DHT22;37835;53.256;6.456;2022-10-16T05:23:24;12.50;99.90
51765;DHT22;37835;53.256;6.456;2022-10-16T05:25:54;12.50;99.90
51765;DHT22;37835;53.256;6.456;2022-10-16T05:28:20;12.50;99.90
51765;DHT22;37835;53.256;6.456;2022-10-16T05:30:46;12.50;99.90
51765;DHT22;37835;53.256;6.456;2022-10-16T05:33:12;12.50;99.90
51765;DHT22;37835;53.256;6.456;2022-10-16T05:35:37;12.50;99.90
51765;DHT22;37835;53.256;6.456;2022-10-16T05:38:03;12.50;99.90
51765;DHT22;37835;53.256;6.456;2022-10-16T05:40:28;12.50;99.90
51765;DHT22;37835;53.256;6.456;2022-10-16T05:42:57;12.50;99.90
51765;DHT22;37835;53.256;6.456;2022-10-16T05:45:22;12.50;99.90
51765;DHT22;37835;53.256;6.456;2022-10-16T05:47:48;12.50;99.90
51765;DHT22;37835;53.256;6.456;2022-10-16T05:50:14;12.50;99.90
51765;DHT22;37835;53.256;6.456;2022-10-16T05:52:39;12.50;99.90
51765;DHT22;37835;53.256;6.456;2022-10-16T05:55:05;12.50;99.90
51765;DHT22;37835;53.256;6.456;2022-10-16T05:57:31;12.50;99.90
51765;DHT22;37835;53.256;6.456;2022-10-16T05:59:56;12.50;99.90
51765;DHT22;37835;53.256;6.456;2022-10-16T06:02:22;12.50;99.90
51765;DHT22;37835;53.256;6.456;2022-10-16T06:04:47;12.50;99.90
51765;DHT22;37835;53.256;6.456;2022-10-16T06:07:13;12.40;99.90
51765;DHT22;37835;53.256;6.456;2022-10-16T06:09:39;12.50;99.90
51765;DHT22;37835;53.256;6.456;2022-10-16T06:12:04;12.40;99.90
51765;DHT22;37835;53.256;6.456;2022-10-16T06:14:30;12.40;99.90
51765;DHT22;37835;53.256;6.456;2022-10-16T06:16:55;12.40;99.90
51765;DHT22;37835;53.256;6.456;2022-10-16T06:19:21;12.40;99.90
51765;DHT22;37835;53.256;6.456;2022-10-16T06:21:48;12.40;99.90
51765;DHT22;37835;53.256;6.456;2022-10-16T06:24:13;12.40;99.90
51765;DHT22;37835;53.256;6.456;2022-10-16T06:26:39;12.40;99.90
51765;DHT22;37835;53.256;6.456;2022-10-16T06:29:04;12.40;99.90
51765;DHT22;37835;53.256;6.456;2022-10-16T06:31:30;12.40;99.90
51765;DHT22;37835;53.256;6.456;2022-10-16T06:33:59;12.50;99.90
51765;DHT22;37835;53.256;6.456;2022-10-16T06:36:25;12.50;99.90
51765;DHT22;37835;53.256;6.456;2022-10-16T06:38:51;12.50;99.90
51765;DHT22;37835;53.256;6.456;2022-10-16T06:41:20;12.50;99.90
51765;DHT22;37835;53.256;6.456;2022-10-16T06:43:47;12.50;99.90
51765;DHT22;37835;53.256;6.456;2022-10-16T06:46:15;12.60;99.90
51765;DHT22;37835;53.256;6.456;2022-10-16T06:48:41;12.60;99.90
51765;DHT22;37835;53.256;6.456;2022-10-16T06:51:13;12.60;99.90
51765;DHT22;37835;53.256;6.456;2022-10-16T06:53:44;12.60;99.90
51765;DHT22;37835;53.256;6.456;2022-10-16T06:56:11;12.60;99.90
51765;DHT22;37835;53.256;6.456;2022-10-16T06:58:37;12.60;99.90
51765;DHT22;37835;53.256;6.456;2022-10-16T07:01:04;12.60;99.90
51765;DHT22;37835;53.256;6.456;2022-10-16T07:03:30;12.60;99.90
51765;DHT22;37835;53.256;6.456;2022-10-16T07:05:56;12.70;99.90
51765;DHT22;37835;53.256;6.456;2022-10-16T07:08:22;12.60;99.90
51765;DHT22;37835;53.256;6.456;2022-10-16T07:10:47;12.70;99.90
51765;DHT22;37835;53.256;6.456;2022-10-16T07:13:13;12.70;99.90
51765;DHT22;37835;53.256;6.456;2022-10-16T07:15:40;12.80;99.90
51765;DHT22;37835;53.256;6.456;2022-10-16T07:18:06;12.70;99.90
51765;DHT22;37835;53.256;6.456;2022-10-16T07:20:32;12.80;99.90
51765;DHT22;37835;53.256;6.456;2022-10-16T07:22:58;12.80;99.90
51765;DHT22;37835;53.256;6.456;2022-10-16T07:25:23;12.80;99.90
51765;DHT22;37835;53.256;6.456;2022-10-16T07:27:49;12.80;99.90
51765;DHT22;37835;53.256;6.456;2022-10-16T07:30:14;12.90;99.90
51765;DHT22;37835;53.256;6.456;2022-10-16T07:32:40;12.90;99.90
51765;DHT22;37835;53.256;6.456;2022-10-16T07:35:06;12.90;99.90
51765;DHT22;37835;53.256;6.456;2022-10-16T07:37:32;12.90;99.90
51765;DHT22;37835;53.256;6.456;2022-10-16T07:39:57;13.00;99.90
51765;DHT22;37835;53.256;6.456;2022-10-16T07:42:23;13.00;99.90
51765;DHT22;37835;53.256;6.456;2022-10-16T07:44:48;13.00;99.90
51765;DHT22;37835;53.256;6.456;2022-10-16T07:47:14;13.00;99.90
51765;DHT22;37835;53.256;6.456;2022-10-16T07:49:39;13.00;99.90
51765;DHT22;37835;53.256;6.456;2022-10-16T07:52:05;13.00;99.90
51765;DHT22;37835;53.256;6.456;2022-10-16T07:54:30;13.00;99.90
51765;DHT22;37835;53.256;6.456;2022-10-16T07:56:56;13.00;99.90
51765;DHT22;37835;53.256;6.456;2022-10-16T07:59:22;12.90;99.90
51765;DHT22;37835;53.256;6.456;2022-10-16T08:01:49;12.90;99.90
51765;DHT22;37835;53.256;6.456;2022-10-16T08:04:14;12.90;99.90
51765;DHT22;37835;53.256;6.456;2022-10-16T08:06:40;12.90;99.90
51765;DHT22;37835;53.256;6.456;2022-10-16T08:09:07;12.90;99.90
51765;DHT22;37835;53.256;6.456;2022-10-16T08:11:33;12.90;99.90
51765;DHT22;37835;53.256;6.456;2022-10-16T08:13:59;12.90;99.90
51765;DHT22;37835;53.256;6.456;2022-10-16T08:16:24;12.90;99.90
51765;DHT22;37835;53.256;6.456;2022-10-16T08:18:50;13.00;99.90
51765;DHT22;37835;53.256;6.456;2022-10-16T08:21:19;13.10;99.90
51765;DHT22;37835;53.256;6.456;2022-10-16T08:23:44;13.10;99.90
51765;DHT22;37835;53.256;6.456;2022-10-16T08:26:10;13.20;99.90
51765;DHT22;37835;53.256;6.456;2022-10-16T08:28:36;13.30;99.90
51765;DHT22;37835;53.256;6.456;2022-10-16T08:31:10;13.40;99.90
51765;DHT22;37835;53.256;6.456;2022-10-16T08:33:36;13.40;99.90
51765;DHT22;37835;53.256;6.456;2022-10-16T08:36:03;13.50;99.90
51765;DHT22;37835;53.256;6.456;2022-10-16T08:38:29;13.50;99.90
51765;DHT22;37835;53.256;6.456;2022-10-16T08:44:09;13.50;99.90
51765;DHT22;37835;53.256;6.456;2022-10-16T08:46:46;13.50;99.90
51765;DHT22;37835;53.256;6.456;2022-10-16T08:49:14;13.60;99.90
51765;DHT22;37835;53.256;6.456;2022-10-16T08:51:40;13.60;99.90
51765;DHT22;37835;53.256;6.456;2022-10-16T08:54:36;13.70;99.90
51765;DHT22;37835;53.256;6.456;2022-10-16T08:57:19;13.70;99.90
51765;DHT22;37835;53.256;6.456;2022-10-16T08:59:45;13.70;99.90
51765;DHT22;37835;53.256;6.456;2022-10-16T09:02:29;13.70;99.90
51765;DHT22;37835;53.256;6.456;2022-10-16T09:05:36;13.80;99.90
51765;DHT22;37835;53.256;6.456;2022-10-16T09:08:25;13.80;99.90
51765;DHT22;37835;53.256;6.456;2022-10-16T09:11:03;13.80;99.90
51765;DHT22;37835;53.256;6.456;2022-10-16T09:13:40;13.80;99.90
51765;DHT22;37835;53.256;6.456;2022-10-16T09:16:24;14.00;99.90
51765;DHT22;37835;53.256;6.456;2022-10-16T09:19:00;14.10;99.90
51765;DHT22;37835;53.256;6.456;2022-10-16T09:21:31;14.20;99.90
51765;DHT22;37835;53.256;6.456;2022-10-16T09:24:04;14.20;99.90
51765;DHT22;37835;53.256;6.456;2022-10-16T09:26:34;14.20;99.90
51765;DHT22;37835;53.256;6.456;2022-10-16T09:28:59;14.30;99.90
51765;DHT22;37835;53.256;6.456;2022-10-16T09:31:25;14.40;99.90
51765;DHT22;37835;53.256;6.456;2022-10-16T09:33:54;14.50;99.90
51765;DHT22;37835;53.256;6.456;2022-10-16T09:36:23;14.50;99.90
51765;DHT22;37835;53.256;6.456;2022-10-16T09:38:49;14.60;99.90
51765;DHT22;37835;53.256;6.456;2022-10-16T09:41:21;14.60;99.90
51765;DHT22;37835;53.256;6.456;2022-10-16T09:43:48;14.70;99.90
51765;DHT22;37835;53.256;6.456;2022-10-16T09:46:31;14.70;99.90
51765;DHT22;37835;53.256;6.456;2022-10-16T09:49:17;14.80;99.90
51765;DHT22;37835;53.256;6.456;2022-10-16T09:51:44;14.80;99.90
51765;DHT22;37835;53.256;6.456;2022-10-16T09:54:16;14.90;99.90
51765;DHT22;37835;53.256;6.456;2022-10-16T09:56:43;14.90;99.90
51765;DHT22;37835;53.256;6.456;2022-10-16T09:59:16;14.90;99.90
51765;DHT22;37835;53.256;6.456;2022-10-16T10:01:52;15.00;99.90
51765;DHT22;37835;53.256;6.456;2022-10-16T10:04:23;15.00;99.90
51765;DHT22;37835;53.256;6.456;2022-10-16T10:06:56;15.10;99.90
51765;DHT22;37835;53.256;6.456;2022-10-16T10:09:26;15.10;99.90
51765;DHT22;37835;53.256;6.456;2022-10-16T10:11:59;15.10;99.90
51765;DHT22;37835;53.256;6.456;2022-10-16T10:14:46;15.20;99.90
51765;DHT22;37835;53.256;6.456;2022-10-16T10:17:24;15.30;99.90
51765;DHT22;37835;53.256;6.456;2022-10-16T10:19:59;15.30;99.90
51765;DHT22;37835;53.256;6.456;2022-10-16T10:22:40;15.30;99.90
51765;DHT22;37835;53.256;6.456;2022-10-16T10:27:55;15.40;99.90
51765;DHT22;37835;53.256;6.456;2022-10-16T10:33:26;15.50;99.90
51765;DHT22;37835;53.256;6.456;2022-10-16T10:38:50;15.70;99.90
51765;DHT22;37835;53.256;6.456;2022-10-16T10:44:03;15.80;99.90
51765;DHT22;37835;53.256;6.456;2022-10-16T10:46:45;15.90;99.90
51765;DHT22;37835;53.256;6.456;2022-10-16T10:54:45;16.00;99.90
51765;DHT22;37835;53.256;6.456;2022-10-16T10:57:24;15.90;99.90
51765;DHT22;37835;53.256;6.456;2022-10-16T11:00:28;15.90;99.90
51765;DHT22;37835;53.256;6.456;2022-10-16T11:05:56;15.80;99.90
51765;DHT22;37835;53.256;6.456;2022-10-16T11:11:37;15.70;99.90
51765;DHT22;37835;53.256;6.456;2022-10-16T11:16:57;15.80;99.90
51765;DHT22;37835;53.256;6.456;2022-10-16T11:19:38;15.90;99.90
51765;DHT22;37835;53.256;6.456;2022-10-16T11:22:28;15.90;99.90
51765;DHT22;37835;53.256;6.456;2022-10-16T11:30:25;15.80;99.90
51765;DHT22;37835;53.256;6.456;2022-10-16T11:32:54;15.80;99.90
51765;DHT22;37835;53.256;6.456;2022-10-16T11:35:39;15.70;99.90
51765;DHT22;37835;53.256;6.456;2022-10-16T11:38:20;15.70;99.90
51765;DHT22;37835;53.256;6.456;2022-10-16T11:40:52;15.60;99.90
51765;DHT22;37835;53.256;6.456;2022-10-16T11:43:27;15.60;99.90
51765;DHT22;37835;53.256;6.456;2022-10-16T11:45:56;15.50;99.90
51765;DHT22;37835;53.256;6.456;2022-10-16T11:51:45;15.30;99.90
51765;DHT22;37835;53.256;6.456;2022-10-16T11:54:35;15.40;99.90
51765;DHT22;37835;53.256;6.456;2022-10-16T11:57:11;15.50;99.90
51765;DHT22;37835;53.256;6.456;2022-10-16T11:59:46;15.60;99.90
51765;DHT22;37835;53.256;6.456;2022-10-16T12:07:56;16.00;99.90
51765;DHT22;37835;53.256;6.456;2022-10-16T12:10:27;16.20;99.90
51765;DHT22;37835;53.256;6.456;2022-10-16T12:12:53;16.30;99.90
51765;DHT22;37835;53.256;6.456;2022-10-16T12:15:30;16.40;99.90
51765;DHT22;37835;53.256;6.456;2022-10-16T12:17:56;16.50;99.90
51765;DHT22;37835;53.256;6.456;2022-10-16T12:20:31;16.50;99.90
51765;DHT22;37835;53.256;6.456;2022-10-16T12:23:01;16.50;99.90
51765;DHT22;37835;53.256;6.456;2022-10-16T12:25:39;16.40;99.90
51765;DHT22;37835;53.256;6.456;2022-10-16T12:30:41;16.30;99.90
51765;DHT22;37835;53.256;6.456;2022-10-16T12:33:25;16.30;99.90
51765;DHT22;37835;53.256;6.456;2022-10-16T12:35:52;16.30;99.90
51765;DHT22;37835;53.256;6.456;2022-10-16T12:38:36;16.20;99.90
51765;DHT22;37835;53.256;6.456;2022-10-16T12:41:05;16.10;99.90
51765;DHT22;37835;53.256;6.456;2022-10-16T12:43:39;16.00;99.90
51765;DHT22;37835;53.256;6.456;2022-10-16T12:48:41;15.90;99.90
51765;DHT22;37835;53.256;6.456;2022-10-16T12:51:33;15.80;99.90
51765;DHT22;37835;53.256;6.456;2022-10-16T12:54:17;15.70;99.90
51765;DHT22;37835;53.256;6.456;2022-10-16T13:15:47;15.50;99.90
51765;DHT22;37835;53.256;6.456;2022-10-16T13:18:25;15.60;99.90
51765;DHT22;37835;53.256;6.456;2022-10-16T13:21:01;15.60;99.90
51765;DHT22;37835;53.256;6.456;2022-10-16T13:23:48;15.60;99.90
51765;DHT22;37835;53.256;6.456;2022-10-16T13:29:04;15.60;99.90
51765;DHT22;37835;53.256;6.456;2022-10-16T13:31:30;15.70;99.90
51765;DHT22;37835;53.256;6.456;2022-10-16T13:33:58;15.70;99.90
51765;DHT22;37835;53.256;6.456;2022-10-16T13:36:30;15.70;99.90
51765;DHT22;37835;53.256;6.456;2022-10-16T13:39:15;15.70;99.90
51765;DHT22;37835;53.256;6.456;2022-10-16T13:41:44;15.70;99.90
51765;DHT22;37835;53.256;6.456;2022-10-16T13:44:20;15.80;99.90
51765;DHT22;37835;53.256;6.456;2022-10-16T13:46:46;15.80;99.90
51765;DHT22;37835;53.256;6.456;2022-10-16T13:49:16;15.90;99.90
51765;DHT22;37835;53.256;6.456;2022-10-16T13:51:57;15.90;99.90
51765;DHT22;37835;53.256;6.456;2022-10-16T13:54:24;16.00;99.90
51765;DHT22;37835;53.256;6.456;2022-10-16T13:56:50;16.30;99.90
51765;DHT22;37835;53.256;6.456;2022-10-16T13:59:27;16.10;99.90
51765;DHT22;37835;53.256;6.456;2022-10-16T14:01:57;16.20;99.90
51765;DHT22;37835;53.256;6.456;2022-10-16T14:04:24;16.20;99.90
51765;DHT22;37835;53.256;6.456;2022-10-16T14:06:51;16.20;99.90
51765;DHT22;37835;53.256;6.456;2022-10-16T14:09:28;16.20;99.90
51765;DHT22;37835;53.256;6.456;2022-10-16T14:11:57;16.30;99.90
51765;DHT22;37835;53.256;6.456;2022-10-16T14:14:24;16.30;99.90
51765;DHT22;37835;53.256;6.456;2022-10-16T14:16:52;16.30;99.90
51765;DHT22;37835;53.256;6.456;2022-10-16T14:19:26;16.30;99.90
51765;DHT22;37835;53.256;6.456;2022-10-16T14:21:53;16.30;99.90
51765;DHT22;37835;53.256;6.456;2022-10-16T14:24:34;16.30;99.90
51765;DHT22;37835;53.256;6.456;2022-10-16T14:27:00;16.40;99.90
51765;DHT22;37835;53.256;6.456;2022-10-16T14:29:28;16.30;99.90
51765;DHT22;37835;53.256;6.456;2022-10-16T14:32:02;16.30;99.90
51765;DHT22;37835;53.256;6.456;2022-10-16T14:34:37;16.30;99.90
51765;DHT22;37835;53.256;6.456;2022-10-16T14:37:08;16.20;99.90
51765;DHT22;37835;53.256;6.456;2022-10-16T14:39:34;16.20;99.90
51765;DHT22;37835;53.256;6.456;2022-10-16T14:42:00;16.20;99.90
51765;DHT22;37835;53.256;6.456;2022-10-16T14:44:32;16.10;99.90
51765;DHT22;37835;53.256;6.456;2022-10-16T14:47:07;16.10;99.90
51765;DHT22;37835;53.256;6.456;2022-10-16T14:49:34;16.10;99.90
51765;DHT22;37835;53.256;6.456;2022-10-16T14:52:00;16.00;99.90
51765;DHT22;37835;53.256;6.456;2022-10-16T14:54:26;15.90;99.90
51765;DHT22;37835;53.256;6.456;2022-10-16T14:56:56;15.90;99.90
51765;DHT22;37835;53.256;6.456;2022-10-16T14:59:29;15.80;99.90
51765;DHT22;37835;53.256;6.456;2022-10-16T15:01:55;15.80;99.90
51765;DHT22;37835;53.256;6.456;2022-10-16T15:04:21;15.70;99.90
51765;DHT22;37835;53.256;6.456;2022-10-16T15:06:47;15.70;99.90
51765;DHT22;37835;53.256;6.456;2022-10-16T15:09:12;15.60;99.90
51765;DHT22;37835;53.256;6.456;2022-10-16T15:11:38;15.50;99.90
51765;DHT22;37835;53.256;6.456;2022-10-16T15:14:05;15.50;99.90
51765;DHT22;37835;53.256;6.456;2022-10-16T15:16:31;15.40;99.90
51765;DHT22;37835;53.256;6.456;2022-10-16T15:18:57;15.40;99.90
51765;DHT22;37835;53.256;6.456;2022-10-16T15:21:29;15.40;99.90
51765;DHT22;37835;53.256;6.456;2022-10-16T15:23:55;15.30;99.90
51765;DHT22;37835;53.256;6.456;2022-10-16T15:26:26;15.30;99.90
51765;DHT22;37835;53.256;6.456;2022-10-16T15:28:51;15.20;99.90
51765;DHT22;37835;53.256;6.456;2022-10-16T15:31:17;15.20;99.90
51765;DHT22;37835;53.256;6.456;2022-10-16T15:33:43;15.20;99.90
51765;DHT22;37835;53.256;6.456;2022-10-16T15:36:09;15.10;99.90
51765;DHT22;37835;53.256;6.456;2022-10-16T15:38:35;15.10;99.90
51765;DHT22;37835;53.256;6.456;2022-10-16T15:41:00;15.10;99.90
51765;DHT22;37835;53.256;6.456;2022-10-16T15:43:26;15.00;99.90
51765;DHT22;37835;53.256;6.456;2022-10-16T15:46:02;14.90;99.90
51765;DHT22;37835;53.256;6.456;2022-10-16T15:48:29;14.90;99.90
51765;DHT22;37835;53.256;6.456;2022-10-16T15:50:55;14.90;99.90
51765;DHT22;37835;53.256;6.456;2022-10-16T15:53:21;14.80;99.90
51765;DHT22;37835;53.256;6.456;2022-10-16T15:55:46;14.80;99.90
51765;DHT22;37835;53.256;6.456;2022-10-16T15:58:12;14.70;99.90
51765;DHT22;37835;53.256;6.456;2022-10-16T16:00:38;14.70;99.90
51765;DHT22;37835;53.256;6.456;2022-10-16T16:03:03;14.60;99.90
51765;DHT22;37835;53.256;6.456;2022-10-16T16:05:29;14.50;99.90
51765;DHT22;37835;53.256;6.456;2022-10-16T16:07:54;14.50;99.90
51765;DHT22;37835;53.256;6.456;2022-10-16T16:10:21;14.40;99.90
51765;DHT22;37835;53.256;6.456;2022-10-16T16:12:47;14.40;99.90
51765;DHT22;37835;53.256;6.456;2022-10-16T16:15:20;14.30;99.90
51765;DHT22;37835;53.256;6.456;2022-10-16T16:17:46;14.30;99.90
51765;DHT22;37835;53.256;6.456;2022-10-16T16:20:11;14.20;99.90
51765;DHT22;37835;53.256;6.456;2022-10-16T16:22:37;14.20;99.90
51765;DHT22;37835;53.256;6.456;2022-10-16T16:25:03;14.20;99.90
51765;DHT22;37835;53.256;6.456;2022-10-16T16:27:29;14.20;99.90
51765;DHT22;37835;53.256;6.456;2022-10-16T16:29:58;14.10;99.90
51765;DHT22;37835;53.256;6.456;2022-10-16T16:32:23;14.00;99.90
51765;DHT22;37835;53.256;6.456;2022-10-16T16:34:49;13.90;99.90
51765;DHT22;37835;53.256;6.456;2022-10-16T16:37:15;13.90;99.90
51765;DHT22;37835;53.256;6.456;2022-10-16T16:39:40;13.80;99.90
51765;DHT22;37835;53.256;6.456;2022-10-16T16:42:06;13.70;99.90
51765;DHT22;37835;53.256;6.456;2022-10-16T16:44:33;13.70;99.90
51765;DHT22;37835;53.256;6.456;2022-10-16T16:46:58;13.60;99.90
51765;DHT22;37835;53.256;6.456;2022-10-16T16:49:24;13.60;99.90
51765;DHT22;37835;53.256;6.456;2022-10-16T16:51:50;13.50;99.90
51765;DHT22;37835;53.256;6.456;2022-10-16T16:54:17;13.50;99.90
51765;DHT22;37835;53.256;6.456;2022-10-16T16:56:43;13.40;99.90
51765;DHT22;37835;53.256;6.456;2022-10-16T16:59:14;13.40;99.90
51765;DHT22;37835;53.256;6.456;2022-10-16T17:01:40;13.30;99.90
51765;DHT22;37835;53.256;6.456;2022-10-16T17:04:06;13.30;99.90